createdAt,value
2019-04-02T00:00:06.487Z,40.97
2019-04-02T00:02:40.864Z,31.90
2019-04-02T00:05:14.995Z,20.83
2019-04-02T00:07:49.094Z,19.50
2019-04-02T00:10:25.644Z,34.33
2019-04-02T00:12:59.316Z,32.97
2019-04-02T00:15:32.642Z,18.87
2019-04-02T00:18:06.252Z,18.07
2019-04-02T00:20:39.856Z,27.93
2019-04-02T00:23:13.335Z,23.50
2019-04-02T00:25:47.264Z,24.40
2019-04-02T00:28:20.692Z,20.20
2019-04-02T00:30:54.582Z,18.47
2019-04-02T00:33:47.137Z,18.23
2019-04-02T00:36:20.901Z,18.43
2019-04-02T00:38:54.374Z,20.53
2019-04-02T00:41:27.806Z,17.13
2019-04-02T00:44:01.503Z,16.83
2019-04-02T00:46:35.073Z,19.77
2019-04-02T00:49:08.591Z,21.07
2019-04-02T00:51:42.705Z,43.07
2019-04-02T00:54:16.212Z,22.40
2019-04-02T00:56:50.206Z,20.03
2019-04-02T00:59:23.784Z,30.53
2019-04-02T01:02:04.254Z,26.57
2019-04-02T01:04:39.296Z,20.57
2019-04-02T01:07:13.050Z,33.50
2019-04-02T01:09:48.583Z,21.10
2019-04-02T01:12:23.122Z,24.67
2019-04-02T01:14:57.174Z,17.30
2019-04-02T01:17:31.158Z,19.80
2019-04-02T01:20:04.854Z,23.83
2019-04-02T01:22:38.788Z,17.70
2019-04-02T01:25:12.820Z,25.17
2019-04-02T01:27:46.581Z,29.30
2019-04-02T01:30:20.297Z,21.53
2019-04-02T01:32:54.297Z,24.27
2019-04-02T01:35:28.523Z,26.37
2019-04-02T01:38:02.544Z,23.80
2019-04-02T01:40:37.027Z,21.07
2019-04-02T01:43:11.044Z,22.23
2019-04-02T01:45:44.662Z,20.17
2019-04-02T01:48:18.513Z,16.33
2019-04-02T01:50:51.926Z,17.27
2019-04-02T01:53:25.427Z,16.87
2019-04-02T01:55:59.024Z,18.30
2019-04-02T01:58:32.861Z,18.07
2019-04-02T02:01:06.885Z,42.73
2019-04-02T02:03:40.699Z,29.20
2019-04-02T02:06:14.490Z,22.70
2019-04-02T02:08:48.604Z,38.87
2019-04-02T02:11:22.163Z,24.83
2019-04-02T02:13:59.777Z,25.30
2019-04-02T02:16:33.909Z,21.77
2019-04-02T02:19:08.035Z,17.33
2019-04-02T02:21:44.711Z,27.60
2019-04-02T02:24:19.999Z,33.93
2019-04-02T02:26:54.223Z,46.03
2019-04-02T02:29:30.031Z,33.60
2019-04-02T02:32:06.289Z,24.33
2019-04-02T02:34:39.487Z,22.10
2019-04-02T02:37:13.113Z,19.30
2019-04-02T02:39:47.652Z,20.80
2019-04-02T02:42:23.643Z,20.40
2019-04-02T02:44:57.725Z,19.73
2019-04-02T02:47:33.201Z,22.87
2019-04-02T02:50:06.665Z,25.23
2019-04-02T02:52:40.332Z,24.53
2019-04-02T02:55:14.967Z,16.70
2019-04-02T02:57:48.381Z,31.07
2019-04-02T03:00:22.167Z,21.13
2019-04-02T03:02:56.111Z,37.77
2019-04-02T03:05:31.527Z,18.67
2019-04-02T03:08:05.408Z,19.10
2019-04-02T03:10:39.858Z,24.43
2019-04-02T03:13:13.782Z,36.60
2019-04-02T03:15:50.896Z,42.30
2019-04-02T03:18:24.723Z,32.40
2019-04-02T03:20:58.801Z,25.97
2019-04-02T03:23:32.299Z,32.03
2019-04-02T03:26:06.275Z,35.47
2019-04-02T03:28:39.901Z,29.83
2019-04-02T03:31:13.560Z,35.30
2019-04-02T03:33:50.903Z,26.30
2019-04-02T03:36:24.015Z,23.27
2019-04-02T03:39:00.439Z,23.37
2019-04-02T03:41:33.038Z,32.20
2019-04-02T03:44:06.731Z,39.23
2019-04-02T03:46:43.316Z,22.93
2019-04-02T03:49:15.853Z,33.93
2019-04-02T03:51:49.909Z,20.57
2019-04-02T03:54:23.301Z,27.53
2019-04-02T03:56:58.541Z,27.33
2019-04-02T03:59:32.200Z,28.27
2019-04-02T04:02:06.695Z,32.80
2019-04-02T04:04:40.408Z,29.13
2019-04-02T04:07:14.203Z,29.80
2019-04-02T04:09:48.272Z,30.70
2019-04-02T04:12:22.543Z,24.70
2019-04-02T04:14:56.114Z,40.57
2019-04-02T04:17:32.646Z,43.07
2019-04-02T04:20:06.648Z,31.70
2019-04-02T04:22:40.377Z,30.27
2019-04-02T04:25:13.590Z,41.90
2019-04-02T04:27:47.402Z,26.93
2019-04-02T04:30:21.237Z,46.23
2019-04-02T04:32:56.081Z,34.13
2019-04-02T04:35:30.516Z,30.27
2019-04-02T04:38:04.148Z,32.03
2019-04-02T04:40:37.659Z,26.50
2019-04-02T04:43:12.053Z,26.47
2019-04-02T04:45:45.962Z,36.73
2019-04-02T04:48:20.594Z,35.33
2019-04-02T04:50:54.627Z,28.73
2019-04-02T04:53:28.298Z,23.40
2019-04-02T04:56:02.040Z,28.63
2019-04-02T04:58:36.094Z,31.63
2019-04-02T05:01:10.067Z,33.13
2019-04-02T05:04:18.718Z,26.77
2019-04-02T05:06:54.704Z,23.97
2019-04-02T05:09:28.367Z,28.33
2019-04-02T05:12:01.949Z,38.53
2019-04-02T05:14:35.903Z,34.10
2019-04-02T05:17:09.482Z,30.00
2019-04-02T05:19:47.067Z,24.53
2019-04-02T05:22:20.866Z,29.80
2019-04-02T05:24:54.912Z,27.07
2019-04-02T05:27:28.616Z,31.67
2019-04-02T05:30:03.380Z,49.23
2019-04-02T05:32:38.566Z,59.53
2019-04-02T05:35:14.144Z,38.30
2019-04-02T05:37:47.734Z,73.33
2019-04-02T05:40:22.938Z,53.60
2019-04-02T05:42:56.906Z,76.37
2019-04-02T05:45:31.021Z,88.87
2019-04-02T05:48:05.106Z,63.50
2019-04-02T05:50:40.689Z,57.50
2019-04-02T05:53:17.267Z,70.00
2019-04-02T05:55:53.959Z,60.97
2019-04-02T05:58:28.247Z,87.13
2019-04-02T06:01:03.057Z,96.00
2019-04-02T06:03:36.613Z,76.20
2019-04-02T06:06:12.898Z,67.83
2019-04-02T06:08:47.294Z,67.20
2019-04-02T06:11:22.840Z,57.80
2019-04-02T06:13:56.845Z,68.57
2019-04-02T06:16:31.615Z,64.13
2019-04-02T06:19:07.809Z,61.37
2019-04-02T06:21:46.448Z,78.37
2019-04-02T06:24:23.364Z,80.17
2019-04-02T06:26:57.783Z,62.10
2019-04-02T06:29:32.303Z,48.43
2019-04-02T06:32:07.072Z,38.83
2019-04-02T06:34:41.167Z,53.73
2019-04-02T06:37:16.236Z,46.77
2019-04-02T06:39:50.833Z,54.27
2019-04-02T06:42:25.402Z,60.43
2019-04-02T06:44:59.844Z,42.43
2019-04-02T06:48:02.273Z,47.40
2019-04-02T06:50:37.738Z,72.73
2019-04-02T06:53:12.167Z,43.30
2019-04-02T06:55:46.622Z,75.73
2019-04-02T06:58:21.977Z,57.73
2019-04-02T07:00:56.520Z,53.27
2019-04-02T07:03:38.303Z,42.77
2019-04-02T07:06:14.687Z,53.07
2019-04-02T07:08:49.987Z,51.73
2019-04-02T07:11:28.359Z,39.93
2019-04-02T07:14:02.917Z,71.37
2019-04-02T07:16:39.614Z,46.23
2019-04-02T07:19:14.993Z,58.33
2019-04-02T07:21:50.931Z,38.70
2019-04-02T07:24:25.981Z,38.80
2019-04-02T07:27:02.876Z,35.70
2019-04-02T07:29:38.447Z,53.17
2019-04-02T07:32:13.002Z,33.50
2019-04-02T07:34:50.324Z,39.43
2019-04-02T07:37:25.187Z,47.53
2019-04-02T07:39:59.726Z,33.33
2019-04-02T07:42:33.861Z,48.20
2019-04-02T07:45:10.631Z,44.90
2019-04-02T07:47:46.252Z,29.77
2019-04-02T07:50:20.621Z,43.27
2019-04-02T07:52:55.419Z,43.93
2019-04-02T07:55:33.217Z,41.20
2019-04-02T07:58:08.114Z,40.43
2019-04-02T08:00:43.431Z,48.73
2019-04-02T08:03:18.559Z,39.40
2019-04-02T08:05:58.812Z,39.50
2019-04-02T08:08:34.162Z,54.10
2019-04-02T08:11:08.183Z,48.57
2019-04-02T08:13:43.597Z,24.80
2019-04-02T08:16:20.470Z,32.03
2019-04-02T08:18:54.416Z,43.97
2019-04-02T08:21:30.004Z,34.33
2019-04-02T08:24:04.271Z,32.60
2019-04-02T08:26:39.157Z,29.60
2019-04-02T08:29:13.969Z,28.20
2019-04-02T08:31:47.996Z,28.27
2019-04-02T08:34:22.550Z,36.17
2019-04-02T08:36:56.143Z,29.90
2019-04-02T08:39:30.282Z,50.57
2019-04-02T08:42:08.913Z,32.93
2019-04-02T08:44:44.911Z,24.57
2019-04-02T08:47:21.371Z,22.93
2019-04-02T08:49:56.402Z,27.63
2019-04-02T08:52:31.779Z,26.83
2019-04-02T08:55:12.964Z,26.07
2019-04-02T08:57:54.580Z,32.80
2019-04-02T09:00:24.560Z,27.00
2019-04-02T09:02:59.929Z,29.63
2019-04-02T09:05:37.619Z,29.77
2019-04-02T09:08:09.831Z,27.27
2019-04-02T09:10:45.610Z,24.07
2019-04-02T09:13:21.486Z,22.50
2019-04-02T09:16:00.300Z,22.97
2019-04-02T09:18:35.343Z,25.30
2019-04-02T09:21:09.077Z,22.53
2019-04-02T09:23:45.955Z,31.77
2019-04-02T09:26:22.333Z,26.20
2019-04-02T09:28:56.374Z,17.60
2019-04-02T09:31:30.956Z,22.13
2019-04-02T09:34:05.989Z,23.77
2019-04-02T09:36:42.125Z,25.53
2019-04-02T09:39:17.240Z,23.70
2019-04-02T09:41:52.485Z,22.40
2019-04-02T09:44:25.474Z,22.97
2019-04-02T09:46:59.929Z,20.03
2019-04-02T09:49:35.322Z,22.90
2019-04-02T09:52:08.612Z,27.43
2019-04-02T09:54:41.627Z,29.37
2019-04-02T09:57:18.666Z,23.93
2019-04-02T09:59:53.217Z,24.90
2019-04-02T10:02:27.989Z,21.03
2019-04-02T10:05:02.808Z,21.10
2019-04-02T10:07:37.932Z,23.57
2019-04-02T10:10:14.057Z,19.50
2019-04-02T10:12:50.622Z,19.87
2019-04-02T10:15:26.202Z,20.30
2019-04-02T10:18:00.509Z,13.37
2019-04-02T10:20:35.014Z,18.33
2019-04-02T10:23:08.903Z,24.37
2019-04-02T10:25:43.545Z,22.57
2019-04-02T10:28:20.273Z,18.20
2019-04-02T10:30:55.296Z,16.63
2019-04-02T10:33:30.595Z,19.13
2019-04-02T10:36:05.850Z,10.77
2019-04-02T10:38:42.711Z,12.43
2019-04-02T10:41:17.741Z,13.47
2019-04-02T10:43:56.057Z,14.07
2019-04-02T10:46:30.732Z,14.07
2019-04-02T10:49:05.535Z,14.00
2019-04-02T10:51:40.187Z,12.03
2019-04-02T10:54:15.150Z,16.07
2019-04-02T10:56:51.160Z,17.27
2019-04-02T10:59:25.483Z,14.87
2019-04-02T11:02:05.163Z,10.70
2019-04-02T11:04:40.239Z,12.47
2019-04-02T11:07:15.856Z,22.53
2019-04-02T11:09:49.967Z,21.23
2019-04-02T11:12:24.299Z,19.03
2019-04-02T11:14:58.689Z,19.47
2019-04-02T11:17:34.138Z,15.07
2019-04-02T11:20:10.172Z,18.93
2019-04-02T11:22:45.205Z,19.40
2019-04-02T11:25:20.153Z,17.63
2019-04-02T11:27:54.982Z,14.80
2019-04-02T11:30:29.648Z,15.47
2019-04-02T11:33:03.753Z,16.33
2019-04-02T11:35:38.547Z,16.70
2019-04-02T11:38:13.153Z,16.57
2019-04-02T11:40:48.643Z,21.77
2019-04-02T11:43:22.602Z,17.33
2019-04-02T11:45:58.328Z,16.17
2019-04-02T11:48:35.187Z,17.90
2019-04-02T11:51:10.277Z,14.87
2019-04-02T11:53:45.733Z,16.83
2019-04-02T11:56:20.579Z,19.63
2019-04-02T11:58:56.997Z,17.40
2019-04-02T12:01:35.827Z,12.00
2019-04-02T12:04:12.619Z,16.43
2019-04-02T12:06:48.988Z,24.27
2019-04-02T12:09:25.450Z,10.73
2019-04-02T12:12:00.034Z,10.70
2019-04-02T12:14:35.259Z,12.30
2019-04-02T12:17:09.426Z,20.47
2019-04-02T12:19:43.548Z,22.77
2019-04-02T12:22:18.392Z,11.93
2019-04-02T12:24:53.535Z,9.07
2019-04-02T12:27:26.794Z,13.57
2019-04-02T12:30:02.838Z,9.53
2019-04-02T12:32:45.623Z,10.57
2019-04-02T12:35:20.483Z,11.37
2019-04-02T12:37:56.073Z,6.80
2019-04-02T12:40:31.359Z,12.37
2019-04-02T12:43:06.164Z,8.60
2019-04-02T12:45:39.656Z,12.63
2019-04-02T12:48:15.166Z,6.53
2019-04-02T12:50:50.743Z,9.20
2019-04-02T12:53:24.871Z,6.80
2019-04-02T12:56:00.576Z,7.87
2019-04-02T12:58:34.569Z,12.60
2019-04-02T13:01:10.325Z,11.73
2019-04-02T13:03:44.741Z,8.17
2019-04-02T13:06:26.065Z,9.73
2019-04-02T13:09:01.453Z,10.90
2019-04-02T13:11:38.211Z,8.67
2019-04-02T13:14:13.586Z,8.27
2019-04-02T13:16:50.375Z,13.53
2019-04-02T13:19:24.282Z,8.80
2019-04-02T13:21:57.895Z,6.87
2019-04-02T13:24:37.067Z,9.10
2019-04-02T13:27:10.953Z,7.33
2019-04-02T13:29:46.257Z,11.53
2019-04-02T13:32:23.534Z,14.80
2019-04-02T13:35:00.230Z,8.60
2019-04-02T13:37:34.708Z,8.50
2019-04-02T13:40:11.065Z,10.20
2019-04-02T13:42:47.813Z,7.40
2019-04-02T13:45:21.467Z,8.77
2019-04-02T13:47:56.761Z,9.13
2019-04-02T13:50:30.703Z,5.83
2019-04-02T13:53:07.768Z,13.40
2019-04-02T13:55:44.113Z,6.93
2019-04-02T13:58:21.677Z,12.10
2019-04-02T14:01:12.766Z,9.93
2019-04-02T14:03:48.656Z,10.23
2019-04-02T14:06:25.723Z,12.30
2019-04-02T14:09:01.542Z,8.80
2019-04-02T14:11:39.706Z,8.07
2019-04-02T14:14:14.877Z,15.37
2019-04-02T14:16:50.163Z,8.47
2019-04-02T14:19:24.514Z,10.03
2019-04-02T14:22:00.069Z,9.97
2019-04-02T14:24:34.429Z,8.77
2019-04-02T14:27:08.562Z,7.80
2019-04-02T14:29:42.688Z,8.57
2019-04-02T14:32:16.539Z,7.37
2019-04-02T14:37:32.654Z,9.97
2019-04-02T14:40:07.420Z,8.23
2019-04-02T14:42:42.542Z,8.17
2019-04-02T14:45:19.109Z,11.53
2019-04-02T14:47:56.481Z,13.67
2019-04-02T14:50:32.762Z,13.30
2019-04-02T14:53:08.102Z,7.17
2019-04-02T14:55:43.935Z,13.03
2019-04-02T14:58:17.721Z,6.77
2019-04-02T15:00:54.798Z,13.93
2019-04-02T15:03:31.610Z,8.63
2019-04-02T15:06:04.619Z,12.00
2019-04-02T15:08:39.897Z,19.90
2019-04-02T15:11:15.405Z,7.17
2019-04-02T15:13:51.006Z,8.83
2019-04-02T15:16:24.847Z,12.50
2019-04-02T15:19:01.929Z,17.57
2019-04-02T15:21:51.076Z,8.50
2019-04-02T15:24:28.845Z,15.57
2019-04-02T15:27:06.595Z,12.00
2019-04-02T15:29:40.802Z,12.83
2019-04-02T15:32:17.951Z,12.80
2019-04-02T15:34:59.179Z,17.03
2019-04-02T15:37:33.585Z,11.83
2019-04-02T15:40:08.656Z,12.80
2019-04-02T15:42:42.958Z,13.07
2019-04-02T15:45:17.675Z,18.63
2019-04-02T15:47:53.500Z,9.53
2019-04-02T15:50:29.565Z,9.60
2019-04-02T15:53:04.384Z,13.07
2019-04-02T15:55:38.884Z,10.93
2019-04-02T15:58:18.346Z,10.90
2019-04-02T16:00:51.967Z,13.30
2019-04-02T16:03:26.182Z,9.07
2019-04-02T16:06:00.049Z,15.20
2019-04-02T16:08:34.217Z,17.03
2019-04-02T16:11:08.554Z,13.27
2019-04-02T16:13:42.905Z,17.27
2019-04-02T16:16:17.834Z,19.33
2019-04-02T16:18:52.006Z,28.33
2019-04-02T16:21:28.634Z,22.30
2019-04-02T16:24:03.734Z,17.67
2019-04-02T16:26:39.718Z,19.90
2019-04-02T16:29:13.791Z,16.80
2019-04-02T16:31:47.983Z,19.57
2019-04-02T16:34:37.605Z,24.80
2019-04-02T16:37:01.589Z,12.23
2019-04-02T16:39:36.025Z,17.03
2019-04-02T16:42:10.543Z,20.47
2019-04-02T16:44:44.700Z,29.10
2019-04-02T16:47:19.351Z,26.77
2019-04-02T16:49:53.610Z,23.97
2019-04-02T16:52:28.236Z,23.63
2019-04-02T16:55:02.041Z,16.43
2019-04-02T16:57:36.700Z,18.97
2019-04-02T17:00:14.436Z,21.33
2019-04-02T17:02:49.748Z,16.07
2019-04-02T17:05:23.266Z,20.10
2019-04-02T17:07:58.518Z,24.30
2019-04-02T17:10:33.736Z,23.03
2019-04-02T17:13:07.708Z,19.43
2019-04-02T17:15:43.260Z,20.27
2019-04-02T17:18:18.253Z,19.57
2019-04-02T17:20:52.117Z,21.70
2019-04-02T17:23:27.955Z,30.90
2019-04-02T17:26:01.988Z,20.47
2019-04-02T17:28:36.533Z,19.20
2019-04-02T17:31:11.307Z,17.83
2019-04-02T17:33:45.331Z,23.40
2019-04-02T17:36:21.451Z,24.30
2019-04-02T17:38:56.425Z,28.67
2019-04-02T17:41:35.681Z,24.53
2019-04-02T17:44:10.442Z,36.27
2019-04-02T17:46:45.378Z,34.23
2019-04-02T17:49:20.306Z,22.07
2019-04-02T17:51:56.203Z,41.97
2019-04-02T17:54:31.085Z,36.57
2019-04-02T17:57:06.532Z,33.33
2019-04-02T17:59:40.716Z,23.67
2019-04-02T18:02:16.534Z,36.53
2019-04-02T18:04:51.445Z,32.63
2019-04-02T18:07:27.578Z,30.77
2019-04-02T18:10:02.440Z,34.50
2019-04-02T18:12:36.460Z,32.87
2019-04-02T18:15:16.413Z,26.30
2019-04-02T18:17:52.492Z,26.27
2019-04-02T18:20:30.028Z,32.47
2019-04-02T18:23:04.383Z,31.50
2019-04-02T18:25:41.412Z,52.13
2019-04-02T18:28:17.996Z,31.03
2019-04-02T18:30:53.825Z,25.87
2019-04-02T18:33:29.739Z,42.43
2019-04-02T18:36:07.479Z,38.70
2019-04-02T18:38:42.205Z,45.20
2019-04-02T18:41:17.901Z,34.93
2019-04-02T18:43:53.241Z,53.43
2019-04-02T18:46:27.167Z,39.67
2019-04-02T18:49:02.476Z,35.90
2019-04-02T18:51:36.324Z,54.83
2019-04-02T18:54:10.320Z,34.03
2019-04-02T18:56:45.774Z,43.60
2019-04-02T18:59:20.853Z,54.20
2019-04-02T19:01:55.513Z,40.23
2019-04-02T19:04:30.188Z,41.83
2019-04-02T19:07:06.216Z,54.00
2019-04-02T19:09:41.792Z,49.53
2019-04-02T19:12:16.175Z,41.73
2019-04-02T19:14:50.999Z,33.20
2019-04-02T19:17:25.202Z,41.43
2019-04-02T19:19:59.878Z,29.27
2019-04-02T19:22:36.582Z,25.77
2019-04-02T19:25:11.357Z,37.73
2019-04-02T19:27:45.535Z,36.50
2019-04-02T19:30:20.748Z,30.03
2019-04-02T19:32:55.058Z,47.10
2019-04-02T19:35:29.535Z,32.23
2019-04-02T19:38:03.290Z,43.80
2019-04-02T19:40:37.582Z,45.73
2019-04-02T19:43:11.464Z,28.50
2019-04-02T19:45:46.238Z,31.13
2019-04-02T19:48:21.249Z,24.13
2019-04-02T19:50:56.530Z,21.30
2019-04-02T19:53:32.153Z,41.47
2019-04-02T19:56:08.516Z,27.43
2019-04-02T19:58:41.662Z,40.87
2019-04-02T20:01:16.458Z,26.07
2019-04-02T20:03:57.115Z,19.93
2019-04-02T20:06:32.293Z,36.27
2019-04-02T20:09:09.422Z,39.30
2019-04-02T20:11:45.574Z,22.13
2019-04-02T20:14:22.357Z,24.90
2019-04-02T20:16:55.332Z,22.97
2019-04-02T20:19:29.115Z,24.73
2019-04-02T20:22:03.029Z,27.17
2019-04-02T20:24:38.793Z,24.43
2019-04-02T20:27:15.020Z,22.87
2019-04-02T20:29:50.041Z,23.00
2019-04-02T20:32:25.875Z,41.30
2019-04-02T20:35:01.019Z,32.53
2019-04-02T20:37:34.720Z,40.00
2019-04-02T20:40:09.134Z,30.10
2019-04-02T20:42:43.571Z,27.40
2019-04-02T20:45:19.368Z,23.60
2019-04-02T20:47:54.858Z,44.37
2019-04-02T20:50:29.205Z,31.37
2019-04-02T20:53:15.409Z,26.93
2019-04-02T20:55:39.109Z,37.53
2019-04-02T20:58:13.087Z,42.60
2019-04-02T21:00:48.287Z,69.47
2019-04-02T21:03:21.956Z,26.77
2019-04-02T21:06:03.628Z,22.17
2019-04-02T21:08:39.546Z,28.87
2019-04-02T21:11:15.205Z,22.23
2019-04-02T21:13:48.763Z,39.40
2019-04-02T21:16:22.975Z,65.80
2019-04-02T21:18:57.494Z,36.53
2019-04-02T21:21:33.123Z,25.00
2019-04-02T21:24:10.380Z,32.03
2019-04-02T21:26:46.059Z,22.80
2019-04-02T21:29:21.001Z,15.83
2019-04-02T21:31:55.154Z,29.40
2019-04-02T21:34:37.725Z,20.47
2019-04-02T21:37:05.844Z,21.63
2019-04-02T21:39:39.593Z,19.93
2019-04-02T21:42:13.897Z,19.37
2019-04-02T21:44:50.317Z,35.43
2019-04-02T21:47:24.839Z,21.27
2019-04-02T21:50:01.883Z,23.03
2019-04-02T21:52:37.810Z,19.23
2019-04-02T21:55:12.652Z,22.53
2019-04-02T21:57:46.896Z,30.70
2019-04-02T22:00:30.233Z,58.67
2019-04-02T22:03:04.411Z,51.47
2019-04-02T22:05:38.157Z,55.97
2019-04-02T22:08:12.730Z,31.43
2019-04-02T22:10:49.023Z,31.70
2019-04-02T22:13:22.767Z,21.07
2019-04-02T22:15:58.623Z,18.23
2019-04-02T22:18:33.883Z,32.87
2019-04-02T22:21:07.525Z,39.67
2019-04-02T22:23:43.834Z,35.93
2019-04-02T22:26:17.737Z,30.93
2019-04-02T22:28:59.881Z,40.27
2019-04-02T22:31:35.820Z,20.80
2019-04-02T22:34:12.829Z,20.80
2019-04-02T22:36:47.688Z,22.87
2019-04-02T22:39:24.020Z,50.27
2019-04-02T22:41:56.934Z,37.67
2019-04-02T22:44:30.937Z,31.80
2019-04-02T22:47:08.339Z,26.70
2019-04-02T22:49:44.540Z,36.20
2019-04-02T22:52:20.959Z,25.33
2019-04-02T22:54:54.878Z,18.17
2019-04-02T22:57:30.707Z,22.97
2019-04-02T23:00:12.489Z,16.63
2019-04-02T23:02:49.098Z,17.40
2019-04-02T23:05:22.566Z,20.53
2019-04-02T23:07:56.819Z,35.67
2019-04-02T23:10:33.563Z,27.63
2019-04-02T23:13:07.652Z,24.77
2019-04-02T23:15:42.876Z,19.93
2019-04-02T23:18:26.218Z,24.47
2019-04-02T23:20:55.940Z,15.90
2019-04-02T23:23:29.380Z,19.00
2019-04-02T23:26:04.980Z,16.30
2019-04-02T23:28:40.434Z,16.33
2019-04-02T23:31:14.556Z,18.67
2019-04-02T23:33:48.053Z,19.80
2019-04-02T23:36:27.550Z,18.27
2019-04-02T23:39:02.096Z,15.83
2019-04-02T23:41:35.921Z,48.23
2019-04-02T23:44:09.415Z,20.23
2019-04-02T23:46:43.245Z,41.13
2019-04-02T23:49:19.894Z,50.57
2019-04-02T23:51:55.034Z,33.93
2019-04-02T23:54:33.286Z,18.57
2019-04-02T23:57:06.822Z,21.77
2019-04-02T23:59:42.102Z,19.77
